sensor_id;sensor_type;location;lat;lon;timestamp;temperature;humidity
46784;DHT22;32544;52.832;13.816;2023-03-01T00:00:28;24.90;39.00
46784;DHT22;32544;52.832;13.816;2023-03-01T00:01:29;24.80;39.00
46784;DHT22;32544;52.832;13.816;2023-03-01T00:02:30;24.90;38.90
46784;DHT22;32544;52.832;13.816;2023-03-01T00:03:30;24.90;39.00
46784;DHT22;32544;52.832;13.816;2023-03-01T00:04:32;24.80;38.90
46784;DHT22;32544;52.832;13.816;2023-03-01T00:05:32;24.80;38.90
46784;DHT22;32544;52.832;13.816;2023-03-01T00:06:33;24.80;38.90
46784;DHT22;32544;52.832;13.816;2023-03-01T00:07:33;24.80;38.90
46784;DHT22;32544;52.832;13.816;2023-03-01T00:08:34;24.90;39.00
46784;DHT22;32544;52.832;13.816;2023-03-01T00:09:35;24.80;38.90
46784;DHT22;32544;52.832;13.816;2023-03-01T00:10:36;24.80;38.90
46784;DHT22;32544;52.832;13.816;2023-03-01T00:11:37;24.80;38.90
46784;DHT22;32544;52.832;13.816;2023-03-01T00:12:38;24.80;38.90
46784;DHT22;32544;52.832;13.816;2023-03-01T00:13:38;24.80;38.80
46784;DHT22;32544;52.832;13.816;2023-03-01T00:14:39;24.80;38.90
46784;DHT22;32544;52.832;13.816;2023-03-01T00:15:40;24.80;38.90
46784;DHT22;32544;52.832;13.816;2023-03-01T00:16:42;24.80;39.00
46784;DHT22;32544;52.832;13.816;2023-03-01T00:17:43;24.80;38.90
46784;DHT22;32544;52.832;13.816;2023-03-01T00:18:43;24.80;38.90
46784;DHT22;32544;52.832;13.816;2023-03-01T00:19:44;24.80;38.90
46784;DHT22;32544;52.832;13.816;2023-03-01T00:20:51;24.80;38.90
46784;DHT22;32544;52.832;13.816;2023-03-01T00:21:52;24.80;38.90
46784;DHT22;32544;52.832;13.816;2023-03-01T00:22:53;24.80;38.90
46784;DHT22;32544;52.832;13.816;2023-03-01T00:23:53;24.80;38.90
46784;DHT22;32544;52.832;13.816;2023-03-01T00:24:54;24.80;38.80
46784;DHT22;32544;52.832;13.816;2023-03-01T00:25:54;24.80;39.00
46784;DHT22;32544;52.832;13.816;2023-03-01T00:26:55;24.80;38.80
46784;DHT22;32544;52.832;13.816;2023-03-01T00:27:56;24.80;39.00
46784;DHT22;32544;52.832;13.816;2023-03-01T00:28:57;24.80;38.90
46784;DHT22;32544;52.832;13.816;2023-03-01T00:29:58;24.80;38.90
46784;DHT22;32544;52.832;13.816;2023-03-01T00:31:03;24.80;38.90
46784;DHT22;32544;52.832;13.816;2023-03-01T00:32:04;24.80;38.90
46784;DHT22;32544;52.832;13.816;2023-03-01T00:33:05;24.80;38.80
46784;DHT22;32544;52.832;13.816;2023-03-01T00:34:05;24.80;38.80
46784;DHT22;32544;52.832;13.816;2023-03-01T00:35:06;24.80;38.90
46784;DHT22;32544;52.832;13.816;2023-03-01T00:36:07;24.80;38.90
46784;DHT22;32544;52.832;13.816;2023-03-01T00:37:08;24.80;38.70
46784;DHT22;32544;52.832;13.816;2023-03-01T00:38:09;24.80;38.80
46784;DHT22;32544;52.832;13.816;2023-03-01T00:39:11;24.80;38.80
46784;DHT22;32544;52.832;13.816;2023-03-01T00:40:11;24.80;38.90
46784;DHT22;32544;52.832;13.816;2023-03-01T00:41:13;24.80;38.80
46784;DHT22;32544;52.832;13.816;2023-03-01T00:42:14;24.80;38.80
46784;DHT22;32544;52.832;13.816;2023-03-01T00:43:15;24.80;38.90
46784;DHT22;32544;52.832;13.816;2023-03-01T00:44:15;24.80;38.90
46784;DHT22;32544;52.832;13.816;2023-03-01T00:45:16;24.80;38.80
46784;DHT22;32544;52.832;13.816;2023-03-01T00:46:18;24.80;38.80
46784;DHT22;32544;52.832;13.816;2023-03-01T00:47:19;24.80;38.90
46784;DHT22;32544;52.832;13.816;2023-03-01T00:48:19;24.80;38.80
46784;DHT22;32544;52.832;13.816;2023-03-01T00:49:20;24.80;38.80
46784;DHT22;32544;52.832;13.816;2023-03-01T00:50:20;24.80;38.80
46784;DHT22;32544;52.832;13.816;2023-03-01T00:51:23;24.80;38.90
46784;DHT22;32544;52.832;13.816;2023-03-01T00:52:24;24.80;38.80
46784;DHT22;32544;52.832;13.816;2023-03-01T00:53:25;24.80;38.80
46784;DHT22;32544;52.832;13.816;2023-03-01T00:54:26;24.80;38.80
46784;DHT22;32544;52.832;13.816;2023-03-01T00:55:27;24.80;38.80
46784;DHT22;32544;52.832;13.816;2023-03-01T00:56:27;24.80;38.70
46784;DHT22;32544;52.832;13.816;2023-03-01T00:57:28;24.80;38.90
46784;DHT22;32544;52.832;13.816;2023-03-01T00:58:29;24.80;38.80
46784;DHT22;32544;52.832;13.816;2023-03-01T00:59:29;24.80;38.70
46784;DHT22;32544;52.832;13.816;2023-03-01T01:00:30;24.80;38.80
46784;DHT22;32544;52.832;13.816;2023-03-01T01:01:31;24.80;38.70
46784;DHT22;32544;52.832;13.816;2023-03-01T01:02:32;24.80;38.90
46784;DHT22;32544;52.832;13.816;2023-03-01T01:03:32;24.80;38.80
46784;DHT22;32544;52.832;13.816;2023-03-01T01:04:33;24.80;38.80
46784;DHT22;32544;52.832;13.816;2023-03-01T01:05:34;24.80;38.90
46784;DHT22;32544;52.832;13.816;2023-03-01T01:06:42;24.80;38.80
46784;DHT22;32544;52.832;13.816;2023-03-01T01:07:43;24.80;38.70
46784;DHT22;32544;52.832;13.816;2023-03-01T01:08:44;24.80;38.70
46784;DHT22;32544;52.832;13.816;2023-03-01T01:09:44;24.80;38.80
46784;DHT22;32544;52.832;13.816;2023-03-01T01:10:45;24.80;38.70
46784;DHT22;32544;52.832;13.816;2023-03-01T01:11:47;24.80;38.70
46784;DHT22;32544;52.832;13.816;2023-03-01T01:12:48;24.80;38.70
46784;DHT22;32544;52.832;13.816;2023-03-01T01:13:49;24.80;38.70
46784;DHT22;32544;52.832;13.816;2023-03-01T01:14:50;24.80;38.70
46784;DHT22;32544;52.832;13.816;2023-03-01T01:15:50;24.80;38.70
46784;DHT22;32544;52.832;13.816;2023-03-01T01:16:52;24.80;38.70
46784;DHT22;32544;52.832;13.816;2023-03-01T01:17:53;24.80;38.70
46784;DHT22;32544;52.832;13.816;2023-03-01T01:18:53;24.80;38.70
46784;DHT22;32544;52.832;13.816;2023-03-01T01:19:54;24.80;38.60
46784;DHT22;32544;52.832;13.816;2023-03-01T01:20:55;24.80;38.70
46784;DHT22;32544;52.832;13.816;2023-03-01T01:21:55;24.80;38.70
46784;DHT22;32544;52.832;13.816;2023-03-01T01:22:56;24.80;38.70
46784;DHT22;32544;52.832;13.816;2023-03-01T01:23:57;24.80;38.60
46784;DHT22;32544;52.832;13.816;2023-03-01T01:24:58;24.80;38.70
46784;DHT22;32544;52.832;13.816;2023-03-01T01:26:09;24.80;38.70
46784;DHT22;32544;52.832;13.816;2023-03-01T01:27:10;24.80;38.60
46784;DHT22;32544;52.832;13.816;2023-03-01T01:28:11;24.80;38.60
46784;DHT22;32544;52.832;13.816;2023-03-01T01:29:11;24.80;38.60
46784;DHT22;32544;52.832;13.816;2023-03-01T01:30:12;24.80;38.60
46784;DHT22;32544;52.832;13.816;2023-03-01T01:31:13;24.80;38.60
46784;DHT22;32544;52.832;13.816;2023-03-01T01:32:14;24.80;38.60
46784;DHT22;32544;52.832;13.816;2023-03-01T01:33:15;24.80;38.70
46784;DHT22;32544;52.832;13.816;2023-03-01T01:34:16;24.80;38.70
46784;DHT22;32544;52.832;13.816;2023-03-01T01:35:17;24.80;38.70
46784;DHT22;32544;52.832;13.816;2023-03-01T01:36:18;24.80;38.60
46784;DHT22;32544;52.832;13.816;2023-03-01T01:37:18;24.90;38.60
46784;DHT22;32544;52.832;13.816;2023-03-01T01:38:20;24.80;38.60
46784;DHT22;32544;52.832;13.816;2023-03-01T01:39:21;24.80;38.50
46784;DHT22;32544;52.832;13.816;2023-03-01T01:40:22;24.80;38.60
46784;DHT22;32544;52.832;13.816;2023-03-01T01:41:23;24.80;38.50
46784;DHT22;32544;52.832;13.816;2023-03-01T01:42:24;24.80;38.60
46784;DHT22;32544;52.832;13.816;2023-03-01T01:43:26;24.90;38.60
46784;DHT22;32544;52.832;13.816;2023-03-01T01:44:28;24.80;38.50
46784;DHT22;32544;52.832;13.816;2023-03-01T01:45:32;24.80;38.50
46784;DHT22;32544;52.832;13.816;2023-03-01T01:46:32;24.80;38.40
46784;DHT22;32544;52.832;13.816;2023-03-01T01:47:34;24.80;38.50
46784;DHT22;32544;52.832;13.816;2023-03-01T01:48:41;24.80;38.40
46784;DHT22;32544;52.832;13.816;2023-03-01T01:49:45;24.80;38.60
46784;DHT22;32544;52.832;13.816;2023-03-01T01:50:47;24.90;38.60
46784;DHT22;32544;52.832;13.816;2023-03-01T01:51:50;24.80;38.40
46784;DHT22;32544;52.832;13.816;2023-03-01T01:52:51;24.80;38.60
46784;DHT22;32544;52.832;13.816;2023-03-01T01:53:55;24.80;38.40
46784;DHT22;32544;52.832;13.816;2023-03-01T01:55:01;24.80;38.50
46784;DHT22;32544;52.832;13.816;2023-03-01T01:56:03;24.80;38.50
46784;DHT22;32544;52.832;13.816;2023-03-01T01:57:07;24.80;38.50
46784;DHT22;32544;52.832;13.816;2023-03-01T01:58:09;24.80;38.40
46784;DHT22;32544;52.832;13.816;2023-03-01T01:59:11;24.80;38.40
46784;DHT22;32544;52.832;13.816;2023-03-01T02:00:16;24.90;38.50
46784;DHT22;32544;52.832;13.816;2023-03-01T02:01:18;24.90;38.60
46784;DHT22;32544;52.832;13.816;2023-03-01T02:02:18;24.80;38.40
46784;DHT22;32544;52.832;13.816;2023-03-01T02:03:23;24.90;38.50
46784;DHT22;32544;52.832;13.816;2023-03-01T02:04:25;24.90;38.50
46784;DHT22;32544;52.832;13.816;2023-03-01T02:05:29;24.90;38.50
46784;DHT22;32544;52.832;13.816;2023-03-01T02:06:44;24.90;38.50
46784;DHT22;32544;52.832;13.816;2023-03-01T02:07:46;24.90;38.50
46784;DHT22;32544;52.832;13.816;2023-03-01T02:08:48;24.90;38.40
46784;DHT22;32544;52.832;13.816;2023-03-01T02:09:50;24.90;38.30
46784;DHT22;32544;52.832;13.816;2023-03-01T02:10:53;24.90;38.40
46784;DHT22;32544;52.832;13.816;2023-03-01T02:11:55;24.90;38.50
46784;DHT22;32544;52.832;13.816;2023-03-01T02:12:55;24.90;38.40
46784;DHT22;32544;52.832;13.816;2023-03-01T02:13:56;24.80;38.40
46784;DHT22;32544;52.832;13.816;2023-03-01T02:14:57;24.80;38.40
46784;DHT22;32544;52.832;13.816;2023-03-01T02:15:59;24.90;38.40
46784;DHT22;32544;52.832;13.816;2023-03-01T02:17:00;24.90;38.40
46784;DHT22;32544;52.832;13.816;2023-03-01T02:18:02;24.90;38.40
46784;DHT22;32544;52.832;13.816;2023-03-01T02:19:03;24.80;38.40
46784;DHT22;32544;52.832;13.816;2023-03-01T02:22:01;24.80;38.40
46784;DHT22;32544;52.832;13.816;2023-03-01T02:22:38;24.90;38.40
46784;DHT22;32544;52.832;13.816;2023-03-01T02:23:39;24.90;38.40
46784;DHT22;32544;52.832;13.816;2023-03-01T02:24:47;24.80;38.40
46784;DHT22;32544;52.832;13.816;2023-03-01T02:25:52;24.90;38.40
46784;DHT22;32544;52.832;13.816;2023-03-01T02:26:55;24.90;38.40
46784;DHT22;32544;52.832;13.816;2023-03-01T02:29:00;24.90;38.40
46784;DHT22;32544;52.832;13.816;2023-03-01T02:30:00;24.90;38.40
46784;DHT22;32544;52.832;13.816;2023-03-01T02:31:01;24.90;38.40
46784;DHT22;32544;52.832;13.816;2023-03-01T02:32:21;24.90;39.00
46784;DHT22;32544;52.832;13.816;2023-03-01T02:33:25;24.90;38.50
46784;DHT22;32544;52.832;13.816;2023-03-01T02:34:26;24.90;38.40
46784;DHT22;32544;52.832;13.816;2023-03-01T02:35:29;24.90;38.40
46784;DHT22;32544;52.832;13.816;2023-03-01T02:36:37;24.90;38.30
46784;DHT22;32544;52.832;13.816;2023-03-01T02:37:39;24.90;38.40
46784;DHT22;32544;52.832;13.816;2023-03-01T02:38:40;24.90;38.40
46784;DHT22;32544;52.832;13.816;2023-03-01T02:39:45;24.90;38.40
46784;DHT22;32544;52.832;13.816;2023-03-01T02:40:48;24.90;38.30
46784;DHT22;32544;52.832;13.816;2023-03-01T02:41:51;24.90;38.40
46784;DHT22;32544;52.832;13.816;2023-03-01T02:42:53;24.90;38.40
46784;DHT22;32544;52.832;13.816;2023-03-01T02:43:55;24.90;38.40
46784;DHT22;32544;52.832;13.816;2023-03-01T02:44:55;24.90;38.40
46784;DHT22;32544;52.832;13.816;2023-03-01T02:46:08;24.90;38.30
46784;DHT22;32544;52.832;13.816;2023-03-01T02:47:09;24.90;38.30
46784;DHT22;32544;52.832;13.816;2023-03-01T02:48:09;24.90;38.40
46784;DHT22;32544;52.832;13.816;2023-03-01T02:49:21;24.90;38.40
46784;DHT22;32544;52.832;13.816;2023-03-01T02:50:24;24.90;38.40
46784;DHT22;32544;52.832;13.816;2023-03-01T02:54:22;24.90;38.40
46784;DHT22;32544;52.832;13.816;2023-03-01T02:55:24;24.80;38.30
46784;DHT22;32544;52.832;13.816;2023-03-01T02:56:25;24.80;38.30
46784;DHT22;32544;52.832;13.816;2023-03-01T02:57:27;24.90;38.40
46784;DHT22;32544;52.832;13.816;2023-03-01T02:58:27;24.90;38.40
46784;DHT22;32544;52.832;13.816;2023-03-01T02:59:30;24.80;38.30
46784;DHT22;32544;52.832;13.816;2023-03-01T03:00:36;24.80;38.30
46784;DHT22;32544;52.832;13.816;2023-03-01T03:01:40;24.90;38.40
46784;DHT22;32544;52.832;13.816;2023-03-01T03:02:42;24.80;38.30
46784;DHT22;32544;52.832;13.816;2023-03-01T03:03:49;24.80;38.30
46784;DHT22;32544;52.832;13.816;2023-03-01T03:04:50;24.80;38.30
46784;DHT22;32544;52.832;13.816;2023-03-01T03:05:50;24.90;38.40
46784;DHT22;32544;52.832;13.816;2023-03-01T03:06:51;24.90;38.40
46784;DHT22;32544;52.832;13.816;2023-03-01T03:07:52;24.80;38.20
46784;DHT22;32544;52.832;13.816;2023-03-01T03:08:53;24.90;38.30
46784;DHT22;32544;52.832;13.816;2023-03-01T03:09:53;24.80;38.30
46784;DHT22;32544;52.832;13.816;2023-03-01T03:10:54;24.80;38.20
46784;DHT22;32544;52.832;13.816;2023-03-01T03:11:56;24.80;38.30
46784;DHT22;32544;52.832;13.816;2023-03-01T03:13:00;24.80;38.30
46784;DHT22;32544;52.832;13.816;2023-03-01T03:14:01;24.90;38.40
46784;DHT22;32544;52.832;13.816;2023-03-01T03:15:03;24.80;38.30
46784;DHT22;32544;52.832;13.816;2023-03-01T03:16:09;24.80;38.30
46784;DHT22;32544;52.832;13.816;2023-03-01T03:17:09;24.80;38.30
46784;DHT22;32544;52.832;13.816;2023-03-01T03:18:11;24.90;38.30
46784;DHT22;32544;52.832;13.816;2023-03-01T03:19:12;24.90;38.20
46784;DHT22;32544;52.832;13.816;2023-03-01T03:20:13;24.80;38.30
46784;DHT22;32544;52.832;13.816;2023-03-01T03:21:19;24.90;38.30
46784;DHT22;32544;52.832;13.816;2023-03-01T03:22:19;24.90;38.30
46784;DHT22;32544;52.832;13.816;2023-03-01T03:23:20;24.90;38.30
46784;DHT22;32544;52.832;13.816;2023-03-01T03:24:21;24.90;38.30
46784;DHT22;32544;52.832;13.816;2023-03-01T03:25:22;24.90;38.10
46784;DHT22;32544;52.832;13.816;2023-03-01T03:26:24;24.90;38.30
46784;DHT22;32544;52.832;13.816;2023-03-01T03:27:25;24.90;38.20
46784;DHT22;32544;52.832;13.816;2023-03-01T03:28:26;24.90;38.30
46784;DHT22;32544;52.832;13.816;2023-03-01T03:29:26;24.80;38.10
46784;DHT22;32544;52.832;13.816;2023-03-01T03:30:28;24.90;38.20
46784;DHT22;32544;52.832;13.816;2023-03-01T03:31:29;24.90;38.20
46784;DHT22;32544;52.832;13.816;2023-03-01T03:32:30;24.90;38.20
46784;DHT22;32544;52.832;13.816;2023-03-01T03:33:30;24.80;38.20
46784;DHT22;32544;52.832;13.816;2023-03-01T03:34:31;24.90;38.20
46784;DHT22;32544;52.832;13.816;2023-03-01T03:35:33;24.90;38.20
46784;DHT22;32544;52.832;13.816;2023-03-01T03:36:33;24.90;38.20
46784;DHT22;32544;52.832;13.816;2023-03-01T03:37:37;24.90;38.20
46784;DHT22;32544;52.832;13.816;2023-03-01T03:38:56;24.90;38.10
46784;DHT22;32544;52.832;13.816;2023-03-01T03:39:57;24.90;38.10
46784;DHT22;32544;52.832;13.816;2023-03-01T03:41:00;25.00;38.20
46784;DHT22;32544;52.832;13.816;2023-03-01T03:42:04;24.90;38.10
46784;DHT22;32544;52.832;13.816;2023-03-01T03:43:06;24.90;38.20
46784;DHT22;32544;52.832;13.816;2023-03-01T03:44:07;25.00;38.20
46784;DHT22;32544;52.832;13.816;2023-03-01T03:45:08;25.00;38.20
46784;DHT22;32544;52.832;13.816;2023-03-01T03:46:09;25.00;38.20
46784;DHT22;32544;52.832;13.816;2023-03-01T03:47:10;25.00;38.10
46784;DHT22;32544;52.832;13.816;2023-03-01T03:48:10;25.00;38.20
46784;DHT22;32544;52.832;13.816;2023-03-01T03:49:11;25.00;38.10
46784;DHT22;32544;52.832;13.816;2023-03-01T03:50:12;25.00;38.30
46784;DHT22;32544;52.832;13.816;2023-03-01T03:51:14;25.00;37.90
46784;DHT22;32544;52.832;13.816;2023-03-01T03:52:14;25.10;38.10
46784;DHT22;32544;52.832;13.816;2023-03-01T03:53:15;25.10;38.10
46784;DHT22;32544;52.832;13.816;2023-03-01T03:54:15;25.00;37.90
46784;DHT22;32544;52.832;13.816;2023-03-01T03:55:17;25.00;37.90
46784;DHT22;32544;52.832;13.816;2023-03-01T03:56:19;25.00;37.90
46784;DHT22;32544;52.832;13.816;2023-03-01T03:57:20;25.10;37.90
46784;DHT22;32544;52.832;13.816;2023-03-01T03:58:22;25.00;37.90
46784;DHT22;32544;52.832;13.816;2023-03-01T03:59:23;25.10;37.90
46784;DHT22;32544;52.832;13.816;2023-03-01T04:00:23;25.00;37.80
46784;DHT22;32544;52.832;13.816;2023-03-01T04:01:24;25.00;37.80
46784;DHT22;32544;52.832;13.816;2023-03-01T04:02:25;25.00;38.60
46784;DHT22;32544;52.832;13.816;2023-03-01T04:03:26;25.00;38.50
46784;DHT22;32544;52.832;13.816;2023-03-01T04:04:27;25.10;37.90
46784;DHT22;32544;52.832;13.816;2023-03-01T04:05:28;25.00;37.80
46784;DHT22;32544;52.832;13.816;2023-03-01T04:06:29;25.10;37.50
46784;DHT22;32544;52.832;13.816;2023-03-01T04:07:29;25.10;37.30
46784;DHT22;32544;52.832;13.816;2023-03-01T04:08:30;25.10;37.10
46784;DHT22;32544;52.832;13.816;2023-03-01T04:09:31;25.00;37.10
46784;DHT22;32544;52.832;13.816;2023-03-01T04:10:33;25.00;36.80
46784;DHT22;32544;52.832;13.816;2023-03-01T04:11:33;25.00;36.90
46784;DHT22;32544;52.832;13.816;2023-03-01T04:12:35;25.00;37.10
46784;DHT22;32544;52.832;13.816;2023-03-01T04:13:35;25.00;37.10
46784;DHT22;32544;52.832;13.816;2023-03-01T04:14:36;25.00;37.20
46784;DHT22;32544;52.832;13.816;2023-03-01T04:15:37;25.00;37.10
46784;DHT22;32544;52.832;13.816;2023-03-01T04:16:37;25.00;37.10
46784;DHT22;32544;52.832;13.816;2023-03-01T04:17:42;25.00;37.20
46784;DHT22;32544;52.832;13.816;2023-03-01T04:18:43;25.00;37.20
46784;DHT22;32544;52.832;13.816;2023-03-01T04:19:43;24.90;37.10
46784;DHT22;32544;52.832;13.816;2023-03-01T04:20:44;24.90;37.30
46784;DHT22;32544;52.832;13.816;2023-03-01T04:21:45;24.90;37.20
46784;DHT22;32544;52.832;13.816;2023-03-01T04:22:46;25.00;37.40
46784;DHT22;32544;52.832;13.816;2023-03-01T04:23:47;24.90;37.30
46784;DHT22;32544;52.832;13.816;2023-03-01T04:24:47;24.90;37.40
46784;DHT22;32544;52.832;13.816;2023-03-01T04:25:50;24.90;38.00
46784;DHT22;32544;52.832;13.816;2023-03-01T04:26:55;24.90;37.50
46784;DHT22;32544;52.832;13.816;2023-03-01T04:27:56;24.90;37.50
46784;DHT22;32544;52.832;13.816;2023-03-01T04:28:56;24.90;37.50
46784;DHT22;32544;52.832;13.816;2023-03-01T04:29:57;24.90;37.40
46784;DHT22;32544;52.832;13.816;2023-03-01T04:30:58;24.90;37.50
46784;DHT22;32544;52.832;13.816;2023-03-01T04:31:58;24.90;37.50
46784;DHT22;32544;52.832;13.816;2023-03-01T04:32:59;24.90;37.50
46784;DHT22;32544;52.832;13.816;2023-03-01T04:33:59;24.90;37.50
46784;DHT22;32544;52.832;13.816;2023-03-01T04:35:00;24.90;37.50
46784;DHT22;32544;52.832;13.816;2023-03-01T04:36:01;24.90;37.50
46784;DHT22;32544;52.832;13.816;2023-03-01T04:37:05;24.90;37.50
46784;DHT22;32544;52.832;13.816;2023-03-01T04:38:06;24.90;37.60
46784;DHT22;32544;52.832;13.816;2023-03-01T04:39:07;24.90;37.50
46784;DHT22;32544;52.832;13.816;2023-03-01T04:40:12;24.90;37.60
46784;DHT22;32544;52.832;13.816;2023-03-01T04:41:16;24.80;37.40
46784;DHT22;32544;52.832;13.816;2023-03-01T04:42:17;24.90;37.50
46784;DHT22;32544;52.832;13.816;2023-03-01T04:43:18;24.90;37.60
46784;DHT22;32544;52.832;13.816;2023-03-01T04:44:19;24.90;37.60
46784;DHT22;32544;52.832;13.816;2023-03-01T04:45:19;24.90;37.50
46784;DHT22;32544;52.832;13.816;2023-03-01T04:46:20;24.90;37.60
46784;DHT22;32544;52.832;13.816;2023-03-01T04:47:21;24.90;37.50
46784;DHT22;32544;52.832;13.816;2023-03-01T04:48:22;24.90;37.60
46784;DHT22;32544;52.832;13.816;2023-03-01T04:49:23;24.90;37.60
46784;DHT22;32544;52.832;13.816;2023-03-01T04:50:23;24.90;37.50
46784;DHT22;32544;52.832;13.816;2023-03-01T04:51:25;24.90;37.60
46784;DHT22;32544;52.832;13.816;2023-03-01T04:52:26;24.90;37.50
46784;DHT22;32544;52.832;13.816;2023-03-01T04:53:27;25.00;37.70
46784;DHT22;32544;52.832;13.816;2023-03-01T04:54:28;25.00;37.50
46784;DHT22;32544;52.832;13.816;2023-03-01T04:55:29;25.00;37.50
46784;DHT22;32544;52.832;13.816;2023-03-01T04:56:30;25.00;37.50
46784;DHT22;32544;52.832;13.816;2023-03-01T04:57:31;25.00;37.50
46784;DHT22;32544;52.832;13.816;2023-03-01T04:58:32;25.00;37.50
46784;DHT22;32544;52.832;13.816;2023-03-01T04:59:32;25.00;37.50
46784;DHT22;32544;52.832;13.816;2023-03-01T05:00:33;25.00;37.50
46784;DHT22;32544;52.832;13.816;2023-03-01T05:01:34;25.00;37.50
46784;DHT22;32544;52.832;13.816;2023-03-01T05:02:35;25.00;38.10
46784;DHT22;32544;52.832;13.816;2023-03-01T05:03:36;25.10;37.50
46784;DHT22;32544;52.832;13.816;2023-03-01T05:04:36;25.10;37.40
46784;DHT22;32544;52.832;13.816;2023-03-01T05:05:38;25.10;37.40
46784;DHT22;32544;52.832;13.816;2023-03-01T05:06:38;25.00;37.40
46784;DHT22;32544;52.832;13.816;2023-03-01T05:07:39;25.00;37.30
46784;DHT22;32544;52.832;13.816;2023-03-01T05:08:40;25.10;37.30
46784;DHT22;32544;52.832;13.816;2023-03-01T05:09:41;25.10;37.40
46784;DHT22;32544;52.832;13.816;2023-03-01T05:10:42;25.10;37.40
46784;DHT22;32544;52.832;13.816;2023-03-01T05:11:43;25.10;37.40
46784;DHT22;32544;52.832;13.816;2023-03-01T05:12:44;25.10;37.30
46784;DHT22;32544;52.832;13.816;2023-03-01T05:13:46;25.10;37.50
46784;DHT22;32544;52.832;13.816;2023-03-01T05:14:47;25.10;37.50
46784;DHT22;32544;52.832;13.816;2023-03-01T05:15:48;25.00;37.40
46784;DHT22;32544;52.832;13.816;2023-03-01T05:16:49;25.00;37.40
46784;DHT22;32544;52.832;13.816;2023-03-01T05:17:50;25.00;37.30
46784;DHT22;32544;52.832;13.816;2023-03-01T05:18:50;25.00;37.50
46784;DHT22;32544;52.832;13.816;2023-03-01T05:19:51;25.00;37.40
46784;DHT22;32544;52.832;13.816;2023-03-01T05:20:52;25.00;37.30
46784;DHT22;32544;52.832;13.816;2023-03-01T05:21:53;25.00;37.50
46784;DHT22;32544;52.832;13.816;2023-03-01T05:23:04;25.00;37.50
46784;DHT22;32544;52.832;13.816;2023-03-01T05:24:05;25.10;37.50
46784;DHT22;32544;52.832;13.816;2023-03-01T05:25:10;25.00;37.50
46784;DHT22;32544;52.832;13.816;2023-03-01T05:26:11;25.00;37.40
46784;DHT22;32544;52.832;13.816;2023-03-01T05:27:12;25.00;37.50
46784;DHT22;32544;52.832;13.816;2023-03-01T05:28:13;25.00;37.50
46784;DHT22;32544;52.832;13.816;2023-03-01T05:29:14;25.00;37.50
46784;DHT22;32544;52.832;13.816;2023-03-01T05:30:15;25.00;37.50
46784;DHT22;32544;52.832;13.816;2023-03-01T05:31:15;25.00;37.50
46784;DHT22;32544;52.832;13.816;2023-03-01T05:32:16;25.00;37.50
46784;DHT22;32544;52.832;13.816;2023-03-01T05:33:17;25.00;37.50
46784;DHT22;32544;52.832;13.816;2023-03-01T05:34:17;25.00;37.50
46784;DHT22;32544;52.832;13.816;2023-03-01T05:35:18;25.00;37.50
46784;DHT22;32544;52.832;13.816;2023-03-01T05:36:19;25.00;37.50
46784;DHT22;32544;52.832;13.816;2023-03-01T05:37:19;25.00;37.50
46784;DHT22;32544;52.832;13.816;2023-03-01T05:38:20;25.00;37.50
46784;DHT22;32544;52.832;13.816;2023-03-01T05:39:21;25.00;37.50
46784;DHT22;32544;52.832;13.816;2023-03-01T05:40:23;25.00;37.50
46784;DHT22;32544;52.832;13.816;2023-03-01T05:41:24;25.00;37.50
46784;DHT22;32544;52.832;13.816;2023-03-01T05:42:24;25.00;37.60
46784;DHT22;32544;52.832;13.816;2023-03-01T05:43:25;25.00;37.60
46784;DHT22;32544;52.832;13.816;2023-03-01T05:44:26;25.00;37.60
46784;DHT22;32544;52.832;13.816;2023-03-01T05:45:27;25.00;37.50
46784;DHT22;32544;52.832;13.816;2023-03-01T05:46:27;25.00;37.50
46784;DHT22;32544;52.832;13.816;2023-03-01T05:47:29;25.00;37.50
46784;DHT22;32544;52.832;13.816;2023-03-01T05:48:31;25.00;37.50
46784;DHT22;32544;52.832;13.816;2023-03-01T05:49:32;25.00;37.50
46784;DHT22;32544;52.832;13.816;2023-03-01T05:50:34;25.00;37.50
46784;DHT22;32544;52.832;13.816;2023-03-01T05:51:35;25.00;37.50
46784;DHT22;32544;52.832;13.816;2023-03-01T05:52:36;25.00;37.50
46784;DHT22;32544;52.832;13.816;2023-03-01T05:53:36;25.00;37.50
46784;DHT22;32544;52.832;13.816;2023-03-01T05:54:37;25.00;37.50
46784;DHT22;32544;52.832;13.816;2023-03-01T05:55:39;25.00;37.50
46784;DHT22;32544;52.832;13.816;2023-03-01T05:56:39;25.00;37.50
46784;DHT22;32544;52.832;13.816;2023-03-01T05:57:40;25.00;37.50
46784;DHT22;32544;52.832;13.816;2023-03-01T05:58:41;25.00;37.50
46784;DHT22;32544;52.832;13.816;2023-03-01T05:59:41;25.00;37.50
46784;DHT22;32544;52.832;13.816;2023-03-01T06:00:42;25.00;37.50
46784;DHT22;32544;52.832;13.816;2023-03-01T06:01:43;25.00;37.50
46784;DHT22;32544;52.832;13.816;2023-03-01T06:02:44;25.00;37.50
46784;DHT22;32544;52.832;13.816;2023-03-01T06:03:45;25.00;37.50
46784;DHT22;32544;52.832;13.816;2023-03-01T06:04:45;25.00;37.50
46784;DHT22;32544;52.832;13.816;2023-03-01T06:05:46;25.00;37.50
46784;DHT22;32544;52.832;13.816;2023-03-01T06:06:47;25.00;37.50
46784;DHT22;32544;52.832;13.816;2023-03-01T06:07:47;25.00;37.50
46784;DHT22;32544;52.832;13.816;2023-03-01T06:08:48;25.00;37.50
46784;DHT22;32544;52.832;13.816;2023-03-01T06:09:48;25.00;37.50
46784;DHT22;32544;52.832;13.816;2023-03-01T06:10:49;25.00;37.50
46784;DHT22;32544;52.832;13.816;2023-03-01T06:11:50;25.00;37.50
46784;DHT22;32544;52.832;13.816;2023-03-01T06:12:50;25.00;37.50
46784;DHT22;32544;52.832;13.816;2023-03-01T06:13:51;24.90;37.50
46784;DHT22;32544;52.832;13.816;2023-03-01T06:14:51;25.00;37.50
46784;DHT22;32544;52.832;13.816;2023-03-01T06:15:52;24.90;37.50
46784;DHT22;32544;52.832;13.816;2023-03-01T06:16:52;24.90;37.50
46784;DHT22;32544;52.832;13.816;2023-03-01T06:17:53;25.00;37.50
46784;DHT22;32544;52.832;13.816;2023-03-01T06:18:55;25.00;37.50
46784;DHT22;32544;52.832;13.816;2023-03-01T06:19:56;25.00;37.50
46784;DHT22;32544;52.832;13.816;2023-03-01T06:20:57;24.90;37.50
46784;DHT22;32544;52.832;13.816;2023-03-01T06:21:57;24.90;37.50
46784;DHT22;32544;52.832;13.816;2023-03-01T06:22:58;25.00;38.30
46784;DHT22;32544;52.832;13.816;2023-03-01T06:24:00;25.00;37.50
46784;DHT22;32544;52.832;13.816;2023-03-01T06:25:00;25.00;37.50
46784;DHT22;32544;52.832;13.816;2023-03-01T06:26:04;25.00;37.50
46784;DHT22;32544;52.832;13.816;2023-03-01T06:27:05;25.00;37.50
46784;DHT22;32544;52.832;13.816;2023-03-01T06:28:05;24.90;37.50